Beach City, Ohio
Current Conditions -  °F | °C
As of 2:53 AM on Tuesday 27 Jan 2015 (Local Time) from KPHD Reporting Station
Haze Haze  
Wind Chill: 11°   Ceiling: 2400
Heat Index: 19°   Visibility: 6mi
Dew Point: 13°   Wind: 6mph
Humidity: 77%   Direction: 310°NW
Pressure: 29.91"   Gusts: NA
Location:  40.65°N, 81.58°W
Report Text: KPHD 270753Z AUTO 31005KT 6SM HZ OVC024 M07/M11 A2991 RMK AO2 SNE21 SLP141 P0000 T10721106
Loading
Personal Weather Stations






























Interactive Weather Map New forecast layout! Learn more

10-Day Weather Forecast

Advertisements
Track Severe Weather on mobile